Terminal Aerodrome Forecast
Issued by NWS

Home | Current Version | Previous Version | Text Only | Print | Product List | Glossary Off
Versions: 1 2 3 4 5 6 7 8 9 10 11 12

000
FTUS43 KTOP 212320
TAFFOE
TAF
KFOE 212320Z 2200/2224 03013KT P6SM VCSH OVC070
     FM220500 02008KT 6SM -SHRA SCT022 OVC035
     FM221000 02010KT P6SM OVC040
     FM221500 03011G21KT P6SM BKN060=

USA.gov is the U.S. government's official web portal to all federal, state and local government web resources and services.